createdAt,value
2019-05-13T00:00:29.431Z,53.87
2019-05-13T00:05:39.613Z,53.65
2019-05-13T00:10:48.473Z,54.04
2019-05-13T00:15:58.143Z,54.30
2019-05-13T00:21:05.709Z,54.45
2019-05-13T00:26:15.285Z,54.15
2019-05-13T00:31:27.132Z,54.57
2019-05-13T00:36:35.450Z,55.71
2019-05-13T00:41:45.362Z,55.90
2019-05-13T00:46:55.039Z,56.12
2019-05-13T00:52:03.879Z,56.18
2019-05-13T00:57:14.119Z,55.73
2019-05-13T01:02:24.312Z,55.48
2019-05-13T01:07:34.213Z,55.71
2019-05-13T01:12:44.218Z,55.98
2019-05-13T01:17:53.380Z,56.26
2019-05-13T01:23:04.180Z,56.99
2019-05-13T01:28:17.025Z,57.01
2019-05-13T01:33:25.482Z,56.55
2019-05-13T01:38:37.821Z,56.09
2019-05-13T01:43:46.026Z,55.94
2019-05-13T01:48:54.348Z,55.77
2019-05-13T01:54:04.181Z,55.49
2019-05-13T01:59:17.378Z,55.36
2019-05-13T02:04:27.254Z,55.15
2019-05-13T02:09:37.330Z,55.17
2019-05-13T02:14:47.687Z,55.36
2019-05-13T02:19:57.744Z,55.39
2019-05-13T02:25:24.984Z,56.00
2019-05-13T02:30:45.838Z,56.68
2019-05-13T02:36:03.014Z,56.80
2019-05-13T02:41:13.528Z,57.00
2019-05-13T02:46:27.212Z,57.38
2019-05-13T02:51:34.841Z,57.79
2019-05-13T02:56:46.962Z,58.34
2019-05-13T03:01:56.055Z,58.22
2019-05-13T03:07:07.175Z,59.14
2019-05-13T03:12:23.684Z,59.54
2019-05-13T03:17:43.406Z,59.57
2019-05-13T03:22:56.879Z,59.41
2019-05-13T03:28:26.211Z,58.42
2019-05-13T03:33:37.713Z,58.73
2019-05-13T03:39:05.303Z,59.00
2019-05-13T03:44:04.489Z,59.39
2019-05-13T03:49:18.384Z,59.40
2019-05-13T03:54:28.887Z,59.21
2019-05-13T03:59:43.567Z,58.92
2019-05-13T04:04:59.158Z,59.28
2019-05-13T04:10:07.862Z,59.43
2019-05-13T04:15:23.465Z,59.50
2019-05-13T04:20:44.525Z,59.33
2019-05-13T04:25:55.004Z,58.83
2019-05-13T04:31:04.899Z,58.79
2019-05-13T04:36:13.782Z,59.31
2019-05-13T04:41:24.447Z,59.80
2019-05-13T04:46:33.314Z,59.92
2019-05-13T04:51:42.700Z,60.01
2019-05-13T04:56:55.703Z,59.87
2019-05-13T05:02:39.917Z,59.35
2019-05-13T05:08:16.127Z,58.64
2019-05-13T05:13:59.417Z,58.22
2019-05-13T05:19:33.060Z,57.68
2019-05-13T05:25:01.634Z,56.51
2019-05-13T05:30:51.188Z,56.35
2019-05-13T05:36:34.539Z,55.45
2019-05-13T05:41:51.639Z,55.46
2019-05-13T05:47:02.745Z,55.84
2019-05-13T05:52:21.290Z,56.34
2019-05-13T05:57:31.521Z,56.04
2019-05-13T06:02:45.609Z,55.72
2019-05-13T06:08:33.550Z,55.56
2019-05-13T06:13:46.177Z,55.27
2019-05-13T06:18:56.130Z,54.95
2019-05-13T06:24:11.628Z,54.61
2019-05-13T06:29:22.268Z,53.83
2019-05-13T06:34:32.585Z,53.51
2019-05-13T06:39:42.384Z,53.70
2019-05-13T06:45:12.397Z,53.74
2019-05-13T06:50:22.031Z,53.23
2019-05-13T06:55:35.585Z,52.93
2019-05-13T07:00:46.528Z,52.13
2019-05-13T07:05:58.503Z,51.31
2019-05-13T07:11:17.639Z,50.60
2019-05-13T07:16:23.337Z,50.42
2019-05-13T07:21:33.069Z,49.18
2019-05-13T07:26:43.712Z,48.67
2019-05-13T07:31:57.029Z,48.32
2019-05-13T07:37:11.190Z,47.62
2019-05-13T07:42:17.323Z,47.15
2019-05-13T07:47:31.487Z,46.54
2019-05-13T07:52:42.444Z,45.75
2019-05-13T07:57:58.024Z,44.40
2019-05-13T08:03:12.036Z,44.28
2019-05-13T08:08:21.880Z,43.20
2019-05-13T08:13:31.588Z,43.08
2019-05-13T08:19:12.136Z,40.63
2019-05-13T08:24:22.588Z,42.37
2019-05-13T08:29:32.888Z,39.81
2019-05-13T08:34:41.764Z,38.72
2019-05-13T08:39:52.297Z,39.93
2019-05-13T08:45:05.322Z,36.89
2019-05-13T08:50:16.572Z,36.76
2019-05-13T08:55:32.188Z,38.72
2019-05-13T09:01:02.258Z,38.47
2019-05-13T09:06:12.611Z,36.90
2019-05-13T09:11:25.059Z,36.37
2019-05-13T09:16:35.807Z,36.49
2019-05-13T09:21:49.305Z,36.54
2019-05-13T09:27:01.953Z,34.97
2019-05-13T09:32:21.716Z,34.90
2019-05-13T09:37:31.753Z,35.98
2019-05-13T09:43:02.537Z,34.44
2019-05-13T09:48:24.645Z,32.65
2019-05-13T09:53:33.011Z,33.56
2019-05-13T09:58:44.728Z,32.11
2019-05-13T10:04:03.043Z,33.03
2019-05-13T10:09:34.279Z,32.38
2019-05-13T10:14:41.909Z,32.57
2019-05-13T10:19:51.854Z,30.68
2019-05-13T10:25:02.726Z,30.89
2019-05-13T10:30:12.731Z,29.78
2019-05-13T10:35:19.578Z,29.22
2019-05-13T10:40:27.903Z,29.63
2019-05-13T10:45:34.485Z,29.56
2019-05-13T10:51:04.606Z,30.17
2019-05-13T10:56:35.798Z,29.29
2019-05-13T11:02:08.893Z,29.19
2019-05-13T11:07:19.099Z,28.92
2019-05-13T11:12:33.311Z,29.20
2019-05-13T11:17:43.206Z,29.71
2019-05-13T11:22:53.213Z,28.04
2019-05-13T11:28:02.379Z,27.95
2019-05-13T11:33:18.669Z,25.99
2019-05-13T11:38:33.927Z,25.26
2019-05-13T11:43:44.876Z,27.45
2019-05-13T11:48:57.280Z,27.54
2019-05-13T11:54:13.893Z,27.39
2019-05-13T11:59:22.072Z,28.14
2019-05-13T12:04:35.244Z,24.95
2019-05-13T12:09:44.937Z,24.61
2019-05-13T12:15:22.163Z,24.33
2019-05-13T12:20:07.190Z,25.40
2019-05-13T12:25:16.880Z,25.76
2019-05-13T12:30:27.285Z,24.29
2019-05-13T12:35:35.865Z,26.23
2019-05-13T12:41:08.612Z,25.68
2019-05-13T12:46:26.279Z,26.68
2019-05-13T12:51:36.016Z,24.03
2019-05-13T12:56:46.753Z,25.52
2019-05-13T13:01:56.075Z,25.88
2019-05-13T13:07:13.180Z,25.46
2019-05-13T13:12:18.071Z,25.77
2019-05-13T13:17:37.809Z,26.66
2019-05-13T13:22:49.625Z,26.01
2019-05-13T13:28:10.712Z,26.84
2019-05-13T13:33:24.897Z,26.30
2019-05-13T13:38:42.695Z,30.29
2019-05-13T13:44:12.839Z,26.72
2019-05-13T13:49:23.038Z,28.06
2019-05-13T13:54:36.771Z,26.91
2019-05-13T14:00:26.380Z,26.52
2019-05-13T14:05:24.716Z,26.45
2019-05-13T14:10:34.525Z,22.70
2019-05-13T14:15:45.432Z,22.87
2019-05-13T14:20:55.195Z,22.53
2019-05-13T14:26:03.629Z,21.16
2019-05-13T14:31:13.530Z,22.02
2019-05-13T14:36:24.447Z,20.07
2019-05-13T14:41:32.886Z,20.46
2019-05-13T14:46:47.011Z,22.80
2019-05-13T14:51:51.785Z,26.41
2019-05-13T14:57:02.476Z,27.64
2019-05-13T15:02:11.951Z,27.52
2019-05-13T15:07:22.919Z,29.90
2019-05-13T15:12:32.291Z,28.97
2019-05-13T15:17:42.847Z,28.90
2019-05-13T15:22:51.848Z,30.47
2019-05-13T15:28:02.922Z,30.40
2019-05-13T15:33:09.179Z,28.85
2019-05-13T15:38:14.723Z,29.14
2019-05-13T15:43:24.691Z,30.76
2019-05-13T15:48:35.335Z,29.55
2019-05-13T15:53:43.825Z,32.05
2019-05-13T15:58:52.921Z,31.75
2019-05-13T16:04:03.791Z,31.36
2019-05-13T16:09:12.927Z,32.44
2019-05-13T16:14:21.885Z,32.44
2019-05-13T16:19:33.858Z,32.21
2019-05-13T16:24:41.523Z,32.02
2019-05-13T16:29:46.944Z,32.85
2019-05-13T16:34:55.202Z,32.53
2019-05-13T16:40:02.519Z,31.86
2019-05-13T16:45:12.896Z,32.50
2019-05-13T16:50:27.042Z,32.59
2019-05-13T16:55:36.768Z,32.16
2019-05-13T17:00:46.606Z,32.52
2019-05-13T17:05:57.944Z,33.33
2019-05-13T17:11:11.574Z,33.41
2019-05-13T17:16:21.192Z,33.09
2019-05-13T17:21:31.645Z,31.54
2019-05-13T17:26:38.047Z,31.87
2019-05-13T17:31:45.732Z,32.55
2019-05-13T17:36:53.980Z,32.37
2019-05-13T17:42:01.613Z,32.52
2019-05-13T17:47:08.392Z,32.21
2019-05-13T17:52:22.080Z,32.01
2019-05-13T17:57:32.067Z,32.66
2019-05-13T18:02:44.448Z,33.28
2019-05-13T18:07:52.503Z,33.54
2019-05-13T18:13:03.295Z,33.40
2019-05-13T18:18:12.142Z,33.24
2019-05-13T18:23:22.815Z,33.77
2019-05-13T18:28:31.685Z,34.17
2019-05-13T18:33:51.091Z,34.37
2019-05-13T18:38:58.212Z,34.77
2019-05-13T18:44:05.532Z,35.05
2019-05-13T18:49:14.002Z,35.36
2019-05-13T18:54:28.068Z,35.76
2019-05-13T18:59:37.109Z,35.35
2019-05-13T19:04:45.886Z,35.54
2019-05-13T19:09:53.811Z,35.83
2019-05-13T19:15:02.711Z,36.04
2019-05-13T19:20:11.663Z,36.38
2019-05-13T19:25:18.731Z,36.36
2019-05-13T19:30:25.899Z,36.37
2019-05-13T19:35:37.297Z,36.30
2019-05-13T19:40:47.700Z,36.59
2019-05-13T19:45:57.371Z,36.72
2019-05-13T19:51:05.665Z,37.02
2019-05-13T19:56:15.351Z,37.45
2019-05-13T20:01:24.583Z,38.35
2019-05-13T20:06:32.074Z,38.21
2019-05-13T20:11:41.954Z,38.83
2019-05-13T20:16:52.289Z,39.15
2019-05-13T20:22:03.744Z,39.40
2019-05-13T20:27:14.274Z,39.13
2019-05-13T20:32:22.234Z,39.30
2019-05-13T20:37:31.988Z,39.68
2019-05-13T20:42:42.030Z,40.14
2019-05-13T20:47:51.401Z,40.76
2019-05-13T20:52:58.052Z,41.11
2019-05-13T20:58:12.533Z,40.25
2019-05-13T21:03:22.138Z,41.16
2019-05-13T21:08:32.128Z,41.34
2019-05-13T21:13:43.333Z,41.08
2019-05-13T21:18:53.332Z,41.96
2019-05-13T21:24:01.566Z,42.12
2019-05-13T21:29:10.987Z,42.08
2019-05-13T21:34:22.239Z,41.61
2019-05-13T21:39:32.605Z,42.29
2019-05-13T21:44:44.136Z,42.77
2019-05-13T21:49:56.227Z,42.75
2019-05-13T21:55:02.064Z,43.57
2019-05-13T22:00:12.118Z,43.83
2019-05-13T22:05:19.527Z,44.58
2019-05-13T22:10:30.946Z,44.76
2019-05-13T22:15:38.608Z,44.69
2019-05-13T22:20:50.439Z,45.26
2019-05-13T22:25:56.161Z,45.55
2019-05-13T22:31:06.847Z,46.23
2019-05-13T22:36:21.315Z,46.60
2019-05-13T22:41:33.355Z,47.01
2019-05-13T22:46:44.769Z,47.27
2019-05-13T22:51:55.409Z,47.69
2019-05-13T22:57:01.884Z,48.31
2019-05-13T23:02:10.400Z,48.26
2019-05-13T23:07:22.343Z,48.77
2019-05-13T23:12:31.443Z,49.20
2019-05-13T23:17:41.517Z,49.23
2019-05-13T23:22:51.851Z,49.51
2019-05-13T23:27:59.069Z,49.69
2019-05-13T23:33:11.668Z,49.79
2019-05-13T23:38:18.697Z,50.15
2019-05-13T23:43:25.869Z,50.24
2019-05-13T23:48:35.637Z,50.39
2019-05-13T23:53:42.179Z,50.66
2019-05-13T23:58:51.758Z,51.04
